Time;durP1;ratioP1;P1;durP2;ratioP2;P2;SDS_P1;SDS_P2;PMS_P1;PMS_P2;Temp;Humidity;BMP_temperature;BMP_pressure;BME280_temperature;BME280_humidity;BME280_pressure;Samples;Min_cycle;Max_cycle;Signal;HPM_P1;HPM_P2
2021/07/22 00:00:09;;;;;;;12.90;7.45;;;;;;;17.35;82.57;99577.56;4050966;84;21061;-84
2021/07/22 00:06:18;;;;;;;12.85;7.97;;;;;;;17.39;82.91;99577.73;4062634;84;21157;-83
2021/07/22 00:12:22;;;;;;;15.58;7.20;;;;;;;17.40;82.84;99578.53;4039951;85;21072;-84
2021/07/22 00:18:23;;;;;;;17.70;7.70;;;;;;;17.34;82.70;99574.63;4052807;85;21082;-84
2021/07/22 00:24:26;;;;;;;13.75;7.15;;;;;;;17.34;82.59;99575.39;4055385;84;21446;-84
2021/07/22 00:30:28;;;;;;;9.68;7.35;;;;;;;17.23;82.62;99581.00;4063854;84;21175;-85
2021/07/22 00:36:38;;;;;;;15.63;7.00;;;;;;;17.00;82.39;99579.37;4035569;86;21190;-84
2021/07/22 00:43:06;;;;;;;20.57;7.17;;;;;;;17.03;83.42;99583.30;4039039;84;21183;-84
2021/07/22 00:49:16;;;;;;;12.80;7.22;;;;;;;17.07;83.42;99579.31;4087474;84;21094;-84
2021/07/22 00:55:28;;;;;;;13.45;8.43;;;;;;;17.01;83.19;99575.40;4089587;84;21143;-84
2021/07/22 01:01:32;;;;;;;12.43;8.40;;;;;;;16.96;83.59;99573.66;4060707;84;21103;-84
2021/07/22 01:07:45;;;;;;;14.07;7.97;;;;;;;16.76;83.88;99569.80;4067488;84;21022;-83
2021/07/22 01:14:03;;;;;;;15.55;7.75;;;;;;;16.78;84.64;99566.84;4069320;84;21109;-84
2021/07/22 01:20:20;;;;;;;13.45;7.87;;;;;;;16.88;84.90;99571.51;4081257;83;21090;-84
2021/07/22 01:26:23;;;;;;;11.78;7.37;;;;;;;16.99;85.08;99571.47;4102849;84;21536;-85
2021/07/22 01:32:25;;;;;;;18.20;8.73;;;;;;;17.00;84.77;99567.50;4081357;85;21708;-84
2021/07/22 01:39:00;;;;;;;15.08;8.15;;;;;;;16.98;84.67;99572.06;4071278;83;21203;-84
2021/07/22 01:45:18;;;;;;;17.35;9.00;;;;;;;16.92;84.55;99575.64;3938747;87;21074;-84
2021/07/22 01:51:27;;;;;;;14.23;7.28;;;;;;;16.88;85.01;99569.36;3952543;87;21123;-84
2021/07/22 01:57:35;;;;;;;15.25;7.37;;;;;;;16.94;84.88;99567.74;3951788;87;21702;-84
2021/07/22 02:03:37;;;;;;;12.25;8.03;;;;;;;16.96;85.23;99568.13;3955255;87;21108;-85
2021/07/22 02:09:49;;;;;;;12.40;8.65;;;;;;;16.95;85.33;99577.02;3945535;87;21100;-84
2021/07/22 02:15:58;;;;;;;12.90;8.78;;;;;;;16.91;85.58;99574.08;4040449;83;21143;-84
2021/07/22 02:22:33;;;;;;;18.25;9.38;;;;;;;16.92;85.55;99575.64;4051534;85;21143;-84
2021/07/22 02:28:43;;;;;;;11.63;7.70;;;;;;;16.80;85.07;99574.73;4045186;85;21134;-85
2021/07/22 02:34:45;;;;;;;13.60;7.95;;;;;;;16.67;85.09;99584.65;4086763;84;21411;-84
2021/07/22 02:40:48;;;;;;;14.60;8.10;;;;;;;16.69;85.72;99578.93;4078913;84;21091;-84
2021/07/22 02:47:10;;;;;;;11.80;8.45;;;;;;;16.78;85.74;99585.39;4081002;84;21053;-85
2021/07/22 02:53:51;;;;;;;17.10;9.43;;;;;;;16.77;85.50;99586.59;4068029;83;21694;-84
2021/07/22 03:00:18;;;;;;;14.95;8.23;;;;;;;16.69;85.32;99591.95;4079521;83;21057;-84
2021/07/22 03:06:49;;;;;;;15.20;7.40;;;;;;;16.74;85.83;99594.31;4074235;83;21098;-84
2021/07/22 03:12:55;;;;;;;22.20;8.78;;;;;;;16.74;85.65;99592.93;4065150;83;21133;-85
2021/07/22 03:19:04;;;;;;;10.90;8.15;;;;;;;16.77;86.00;99590.13;4081139;83;21135;-84
2021/07/22 03:25:26;;;;;;;18.40;9.18;;;;;;;16.81;85.72;99587.34;4078360;84;21131;-84
2021/07/22 03:31:46;;;;;;;15.10;8.10;;;;;;;16.86;85.96;99593.27;4060066;84;21071;-84
2021/07/22 03:37:48;;;;;;;16.27;7.92;;;;;;;16.83;85.69;99584.98;4081702;83;21034;-84
2021/07/22 03:44:03;;;;;;;15.03;8.90;;;;;;;16.85;85.89;99589.52;4075226;84;21162;-84
2021/07/22 03:50:06;;;;;;;15.03;8.78;;;;;;;16.88;86.08;99590.09;4165601;81;41154;-84
2021/07/22 03:56:37;;;;;;;11.38;7.17;;;;;;;16.92;85.93;99595.00;4280770;80;21671;-84
2021/07/22 04:02:40;;;;;;;20.17;8.00;;;;;;;16.83;86.12;99597.42;4272471;81;21597;-83
2021/07/22 04:08:44;;;;;;;11.80;7.20;;;;;;;16.83;86.56;99594.66;4281606;81;21027;-84
2021/07/22 04:15:06;;;;;;;10.55;7.33;;;;;;;16.88;86.63;99592.25;4205792;82;22289;-83
2021/07/22 04:21:28;;;;;;;15.88;9.08;;;;;;;16.92;86.59;99593.03;4207503;82;21078;-84
2021/07/22 04:27:50;;;;;;;12.82;7.95;;;;;;;16.94;86.55;99597.55;4210061;82;21094;-82
2021/07/22 04:34:41;;;;;;;17.07;8.68;;;;;;;16.89;86.63;99593.05;4208582;82;21600;-83
2021/07/22 04:40:46;;;;;;;16.93;7.80;;;;;;;16.89;86.41;99599.95;4201043;82;21149;-84
2021/07/22 04:46:58;;;;;;;17.27;9.83;;;;;;;16.89;86.65;99597.98;4201203;82;22290;-84
2021/07/22 04:53:23;;;;;;;13.30;8.25;;;;;;;16.94;86.65;99600.31;4207770;82;21058;-84
2021/07/22 04:59:33;;;;;;;15.60;8.90;;;;;;;16.99;86.73;99598.52;4218333;82;21037;-84
2021/07/22 05:05:36;;;;;;;15.90;9.03;;;;;;;16.97;86.80;99597.36;4196963;83;21039;-84
2021/07/22 05:11:51;;;;;;;16.35;10.48;;;;;;;17.08;86.90;99601.66;4115268;84;21618;-85
2021/07/22 05:17:54;;;;;;;11.85;8.80;;;;;;;17.16;86.46;99598.24;4192761;82;21430;-84
2021/07/22 05:24:54;;;;;;;23.62;8.50;;;;;;;17.23;86.57;99607.28;4207867;82;21107;-84
2021/07/22 05:31:15;;;;;;;15.93;8.53;;;;;;;17.38;86.80;99616.30;4270750;82;21045;-84
2021/07/22 05:44:31;;;;;;;15.48;8.38;;;;;;;17.70;86.44;99613.30;3977576;86;21130;-84
2021/07/22 05:50:34;;;;;;;14.73;9.28;;;;;;;17.82;86.55;99604.53;3991533;87;21099;-84
2021/07/22 05:56:39;;;;;;;16.40;8.95;;;;;;;17.99;86.16;99602.20;3912440;88;21691;-82
2021/07/22 06:02:40;;;;;;;14.58;9.70;;;;;;;18.12;86.00;99604.66;4033374;86;21137;-84
2021/07/22 06:08:57;;;;;;;19.30;9.83;;;;;;;18.18;85.70;99609.94;4039856;86;21104;-83
2021/07/22 06:14:59;;;;;;;14.63;8.78;;;;;;;18.27;85.66;99610.23;4114470;83;21113;-85
2021/07/22 06:35:03;;;;;;;16.45;9.23;;;;;;;18.61;85.33;99610.48;4250670;81;21470;-85
2021/07/22 06:41:13;;;;;;;16.15;9.03;;;;;;;18.74;85.25;99598.25;4247522;81;21540;-83
2021/07/22 06:47:18;;;;;;;17.92;9.00;;;;;;;18.89;84.87;99601.65;4249971;81;21060;-83
2021/07/22 06:59:54;;;;;;;15.58;8.48;;;;;;;19.23;84.06;99601.75;4247462;81;21078;-84
2021/07/22 07:12:33;;;;;;;19.23;9.28;;;;;;;20.18;83.17;99610.02;4277057;81;21054;-84
2021/07/22 07:18:50;;;;;;;12.50;7.97;;;;;;;20.50;81.82;99599.70;4300954;81;21050;-84
2021/07/22 07:25:06;;;;;;;;;;;;;;;20.77;80.99;99605.89;4304995;81;21102;-84
2021/07/22 07:38:10;;;;;;;12.30;6.97;;;;;;;21.44;78.62;99601.06;4148780;84;21044;-84
2021/07/22 07:44:12;;;;;;;12.85;7.72;;;;;;;21.76;78.80;99591.39;4205011;83;21051;-84
2021/07/22 07:50:15;;;;;;;13.43;7.50;;;;;;;22.22;77.47;99589.61;4267824;81;21046;-84
2021/07/22 07:56:18;;;;;;;9.35;6.78;;;;;;;22.53;76.77;99592.78;4217346;81;21205;-84
2021/07/22 08:02:25;;;;;;;10.32;6.80;;;;;;;22.84;74.87;99583.51;4247999;82;21479;-83
2021/07/22 08:08:31;;;;;;;15.13;7.33;;;;;;;23.14;74.62;99578.81;4251322;82;21026;-83
2021/07/22 08:14:42;;;;;;;;;;;;;;;23.22;73.83;99587.76;4249444;81;21086;-86
2021/07/22 08:20:46;;;;;;;10.72;7.33;;;;;;;23.21;71.71;99591.16;4235184;82;20152;-82
2021/07/22 08:26:47;;;;;;;9.88;7.08;;;;;;;23.19;72.08;99583.83;4248701;81;21645;-84
2021/07/22 08:32:49;;;;;;;10.40;6.30;;;;;;;23.23;71.35;99583.13;4204481;82;21121;-81
2021/07/22 08:38:50;;;;;;;11.53;7.37;;;;;;;23.36;71.04;99578.97;4218241;82;20986;-84
2021/07/22 08:44:51;;;;;;;7.70;6.28;;;;;;;23.40;70.22;99571.88;4226219;82;21069;-84
2021/07/22 08:51:09;;;;;;;9.08;5.55;;;;;;;23.62;69.55;99569.94;4210614;82;21078;-83
2021/07/22 08:57:11;;;;;;;7.75;5.80;;;;;;;23.82;68.48;99568.46;4214531;82;21108;-84
2021/07/22 09:03:13;;;;;;;9.20;5.67;;;;;;;23.70;67.46;99560.09;4230841;82;21002;-83
2021/07/22 09:09:18;;;;;;;13.03;6.05;;;;;;;23.28;67.06;99558.67;4229529;82;21590;-84
2021/07/22 09:15:33;;;;;;;9.30;5.70;;;;;;;22.75;67.18;99563.84;4201905;82;21082;-84
2021/07/22 09:21:40;;;;;;;11.15;5.90;;;;;;;22.38;67.83;99563.69;4235692;82;21562;-83
2021/07/22 09:27:45;;;;;;;6.80;5.75;;;;;;;22.18;67.95;99564.41;4240734;82;21056;-83
2021/07/22 09:33:47;;;;;;;15.93;6.40;;;;;;;22.00;67.72;99563.52;4226205;82;21071;-83
2021/07/22 09:39:48;;;;;;;9.45;6.42;;;;;;;21.87;67.87;99563.24;4237634;83;21035;-83
2021/07/22 09:45:51;;;;;;;9.30;5.95;;;;;;;21.70;68.07;99566.63;4184793;82;21065;-84
2021/07/22 09:52:01;;;;;;;9.95;5.80;;;;;;;21.70;68.01;99558.27;4189555;83;21024;-83
2021/07/22 09:58:03;;;;;;;12.58;6.08;;;;;;;21.76;68.31;99559.94;4206978;82;34769;-84
2021/07/22 10:04:06;;;;;;;13.95;5.92;;;;;;;21.78;67.84;99558.91;4190233;82;21101;-83
2021/07/22 10:10:09;;;;;;;13.20;6.97;;;;;;;21.62;67.53;99552.70;4271938;81;21040;-84
2021/07/22 10:16:22;;;;;;;8.50;5.47;;;;;;;21.55;67.92;99551.47;4324270;81;21078;-84
2021/07/22 10:22:27;;;;;;;7.87;5.35;;;;;;;21.49;67.94;99551.22;4305161;81;21598;-83
2021/07/22 10:35:35;;;;;;;7.10;5.22;;;;;;;21.45;67.59;99538.59;4296829;81;21713;-83
2021/07/22 10:41:40;;;;;;;8.30;5.47;;;;;;;21.43;67.89;99542.42;4318221;81;21679;-83
2021/07/22 10:54:58;;;;;;;10.05;5.22;;;;;;;21.44;67.80;99549.55;4287487;81;21077;-83
2021/07/22 11:01:07;;;;;;;5.75;4.45;;;;;;;21.35;67.66;99552.95;4302052;81;21103;-83
2021/07/22 11:07:17;;;;;;;8.03;4.33;;;;;;;21.30;67.30;99547.89;4307469;81;21139;-83
2021/07/22 11:13:44;;;;;;;7.50;4.87;;;;;;;21.30;67.27;99547.89;4320406;81;21407;-83
2021/07/22 11:20:07;;;;;;;6.47;4.40;;;;;;;21.31;67.04;99543.87;4306020;81;21051;-83
2021/07/22 11:26:09;;;;;;;9.08;4.78;;;;;;;21.43;67.02;99540.42;4182054;81;21582;-85
2021/07/22 11:32:10;;;;;;;10.43;4.58;;;;;;;21.56;66.91;99538.49;4303652;81;21041;-83
2021/07/22 11:38:12;;;;;;;10.15;3.98;;;;;;;21.66;66.96;99536.66;4321752;81;21606;-84
2021/07/22 11:44:16;;;;;;;6.62;4.67;;;;;;;21.80;67.30;99527.98;4309003;81;21083;-81
2021/07/22 11:50:18;;;;;;;12.53;5.33;;;;;;;21.87;67.32;99532.59;4277964;81;21533;-82
2021/07/22 11:56:19;;;;;;;10.58;5.05;;;;;;;21.89;66.99;99522.59;4276135;81;21087;-84
2021/07/22 12:02:24;;;;;;;8.08;4.70;;;;;;;21.93;67.06;99521.08;4307865;81;20991;-81
2021/07/22 12:08:31;;;;;;;6.45;5.15;;;;;;;;;;4270217;81;21000;-83
2021/07/22 12:14:37;;;;;;;10.50;5.35;;;;;;;22.11;66.56;99507.47;4275047;81;21043;-83
2021/07/22 12:20:39;;;;;;;8.40;5.27;;;;;;;22.12;66.56;99501.45;4282375;81;21033;-82
2021/07/22 12:26:41;;;;;;;7.20;4.75;;;;;;;22.17;66.02;99502.31;4295758;81;21869;-82
2021/07/22 12:33:06;;;;;;;8.38;4.87;;;;;;;22.26;65.64;99503.84;4294270;81;21068;-83
2021/07/22 12:39:30;;;;;;;7.37;4.83;;;;;;;22.32;65.73;99505.46;4187093;81;9999576;-84
2021/07/22 12:45:24;;;;;;;10.30;4.95;;;;;;;22.43;65.39;99499.77;4287984;81;21104;-82
2021/07/22 12:51:29;;;;;;;8.23;4.75;;;;;;;22.43;65.28;99507.34;4274963;81;21034;-83
2021/07/22 12:57:40;;;;;;;8.20;4.80;;;;;;;22.57;65.33;99504.17;4224331;82;21063;-83
2021/07/22 13:03:45;;;;;;;11.63;4.70;;;;;;;22.65;64.74;99499.34;4299203;81;21528;-83
2021/07/22 13:09:46;;;;;;;5.33;3.80;;;;;;;22.76;64.16;99492.83;4265743;81;21090;-83
2021/07/22 13:15:47;;;;;;;7.25;4.47;;;;;;;22.81;63.61;99486.70;4296380;81;21030;-83
2021/07/22 13:21:50;;;;;;;10.45;4.47;;;;;;;22.89;63.28;99483.08;4298902;81;21436;-83
2021/07/22 13:27:52;;;;;;;8.13;4.47;;;;;;;22.86;62.93;99485.37;4210722;82;21100;-84
2021/07/22 13:33:53;;;;;;;5.85;4.28;;;;;;;22.87;62.96;99477.94;4290742;80;22190;-83
2021/07/22 13:39:54;;;;;;;5.95;4.62;;;;;;;22.94;62.67;99469.96;4272502;80;21055;-84
2021/07/22 13:45:57;;;;;;;7.33;3.80;;;;;;;22.87;62.40;99469.56;4275147;80;21002;-84
2021/07/22 13:52:06;;;;;;;6.22;3.83;;;;;;;22.86;62.14;99459.64;4329582;80;21423;-83
2021/07/22 14:05:12;;;;;;;5.67;4.20;;;;;;;22.88;62.02;99456.40;4319580;80;20984;-83
2021/07/22 14:11:15;;;;;;;7.85;4.62;;;;;;;22.75;61.52;99455.00;4293735;80;22313;-82
2021/07/22 14:17:16;;;;;;;10.43;6.53;;;;;;;22.70;61.02;99452.75;4305025;80;21044;-84
2021/07/22 14:23:18;;;;;;;5.55;4.50;;;;;;;22.68;60.83;99449.62;4328727;80;21087;-85
2021/07/22 14:29:19;;;;;;;7.55;4.35;;;;;;;22.65;61.38;99439.95;4321975;80;21056;-84
2021/07/22 14:35:21;;;;;;;6.40;4.70;;;;;;;22.58;61.45;99438.16;4334744;80;22388;-84
2021/07/22 14:41:22;;;;;;;8.55;5.03;;;;;;;22.57;61.35;99428.84;4179695;80;9999569;-83
2021/07/22 14:47:24;;;;;;;6.95;4.80;;;;;;;22.44;61.56;99425.23;4304517;80;22145;-83
2021/07/22 14:59:56;;;;;;;5.35;4.33;;;;;;;22.42;61.20;99417.92;4284184;80;21468;-83
2021/07/22 15:05:59;;;;;;;7.20;4.70;;;;;;;22.43;61.25;99413.89;4290493;80;21074;-83
2021/07/22 15:12:01;;;;;;;7.40;4.50;;;;;;;22.40;61.56;99410.00;4327335;80;21149;-83
2021/07/22 15:18:02;;;;;;;8.00;4.97;;;;;;;22.33;61.52;99408.80;4318355;80;21414;-83
2021/07/22 15:24:05;;;;;;;5.92;3.80;;;;;;;22.30;61.54;99407.53;4292474;81;21044;-81
2021/07/22 15:30:08;;;;;;;6.08;4.22;;;;;;;22.30;61.38;99401.95;4312521;80;21525;-83
2021/07/22 15:36:10;;;;;;;6.30;4.60;;;;;;;22.29;61.70;99391.41;4157367;80;10000069;-83
2021/07/22 15:42:16;;;;;;;6.22;4.65;;;;;;;22.20;61.50;99390.49;4319877;80;21048;-83
2021/07/22 15:55:11;;;;;;;5.60;4.65;;;;;;;22.12;62.35;99384.34;4300708;80;21069;-83
2021/07/22 16:01:12;;;;;;;7.25;4.70;;;;;;;22.09;62.89;99379.66;4287149;80;21024;-83
2021/07/22 16:07:15;;;;;;;7.25;4.55;;;;;;;22.08;63.53;99373.89;4283091;80;22199;-82
2021/07/22 16:13:16;;;;;;;8.35;5.33;;;;;;;22.06;64.14;99379.16;4292767;81;21674;-84
2021/07/22 16:19:18;;;;;;;8.35;5.17;;;;;;;22.01;64.37;99366.36;4295304;80;21828;-83
2021/07/22 16:25:19;;;;;;;6.95;5.28;;;;;;;21.92;64.23;99363.44;4297878;80;21634;-84
2021/07/22 16:31:22;;;;;;;8.50;5.45;;;;;;;21.83;63.61;99356.34;4319306;80;21072;-83
2021/07/22 16:37:24;;;;;;;5.58;4.47;;;;;;;21.77;63.71;99353.30;4178302;80;10000437;-83
2021/07/22 16:43:25;;;;;;;6.83;5.05;;;;;;;21.71;63.83;99350.86;4322553;80;21504;-83
2021/07/22 16:49:26;;;;;;;7.28;5.58;;;;;;;21.71;64.74;99351.66;4287511;80;21507;-84
2021/07/22 16:55:28;;;;;;;8.45;5.35;;;;;;;21.60;64.46;99344.20;4302832;80;21039;-83
2021/07/22 17:01:29;;;;;;;7.10;4.47;;;;;;;21.50;64.29;99342.48;4320878;80;21571;-83
2021/07/22 17:07:31;;;;;;;8.28;5.03;;;;;;;21.43;64.08;99341.30;4308789;80;21075;-83
2021/07/22 17:13:32;;;;;;;6.45;5.00;;;;;;;21.32;63.92;99340.80;4299929;80;21041;-83
2021/07/22 17:19:35;;;;;;;11.05;5.95;;;;;;;21.29;64.19;99339.49;4307642;80;21503;-83
2021/07/22 17:32:23;;;;;;;7.37;4.97;;;;;;;21.18;65.24;99327.85;4287708;80;22187;-83
2021/07/22 17:38:27;;;;;;;7.25;5.50;;;;;;;21.12;66.11;99333.19;4307341;80;21171;-82
2021/07/22 17:44:28;;;;;;;8.73;4.90;;;;;;;21.09;67.24;99327.70;4328468;80;21559;-84
2021/07/22 17:50:30;;;;;;;9.70;5.28;;;;;;;20.99;67.55;99324.56;4268080;81;21713;-83
2021/07/22 17:56:33;;;;;;;7.70;5.30;;;;;;;20.93;67.27;99327.08;4309981;80;21442;-83
2021/07/22 18:02:35;;;;;;;9.95;6.28;;;;;;;20.89;67.47;99336.11;4304169;80;21542;-82
2021/07/22 18:08:37;;;;;;;9.35;6.37;;;;;;;20.82;67.55;99331.34;4325256;80;21041;-83
2021/07/22 18:14:38;;;;;;;12.10;6.67;;;;;;;20.70;67.95;99335.61;4315674;80;21027;-83
2021/07/22 18:20:40;;;;;;;9.33;5.67;;;;;;;20.59;68.33;99328.13;4317165;80;21131;-83
2021/07/22 18:26:42;;;;;;;9.68;6.28;;;;;;;20.52;69.11;99333.84;4301849;80;20985;-83
2021/07/22 18:33:16;;;;;;;7.03;5.72;;;;;;;20.43;69.31;99329.50;4299189;80;21624;-83
2021/07/22 18:39:17;;;;;;;11.00;5.92;;;;;;;20.31;69.65;99330.19;4301212;80;21422;-83
2021/07/22 18:45:18;;;;;;;9.58;6.17;;;;;;;20.18;69.79;99330.08;4306364;80;21974;-83
2021/07/22 18:51:25;;;;;;;7.58;6.37;;;;;;;20.05;70.23;99336.08;4307636;80;21444;-82
2021/07/22 18:57:31;;;;;;;11.53;5.87;;;;;;;19.92;70.58;99331.62;4300522;80;21118;-82
2021/07/22 19:03:33;;;;;;;8.28;6.20;;;;;;;19.74;70.80;99344.48;4284945;80;21579;-82
2021/07/22 19:09:34;;;;;;;10.80;6.37;;;;;;;19.71;71.24;99348.70;4169940;80;9999703;-82
2021/07/22 19:15:37;;;;;;;13.00;6.83;;;;;;;19.71;71.60;99351.48;4291189;80;21385;-82
2021/07/22 19:21:40;;;;;;;11.55;7.03;;;;;;;19.65;71.71;99353.20;4317443;80;21610;-82
2021/07/22 19:27:45;;;;;;;13.20;7.80;;;;;;;19.52;72.35;99358.59;4294857;80;21420;-82
2021/07/22 19:33:47;;;;;;;9.20;6.90;;;;;;;19.38;72.81;99353.31;4308385;80;21039;-82
2021/07/22 19:39:48;;;;;;;13.45;7.90;;;;;;;19.32;73.41;99354.22;4299301;80;20987;-83
2021/07/22 19:45:50;;;;;;;19.52;7.92;;;;;;;19.17;73.67;99357.82;4271562;81;21092;-82
2021/07/22 19:51:51;;;;;;;13.58;8.08;;;;;;;19.04;74.52;99356.09;4280076;80;21077;-82
2021/07/22 19:57:52;;;;;;;12.82;7.42;;;;;;;18.98;74.74;99355.00;4323968;80;21196;-82
2021/07/22 20:03:54;;;;;;;14.10;6.60;;;;;;;18.85;75.56;99358.19;4286241;80;21005;-84
2021/07/22 20:09:55;;;;;;;10.80;6.28;;;;;;;18.77;76.23;99367.82;4291499;80;21665;-84
2021/07/22 20:15:56;;;;;;;12.23;6.67;;;;;;;18.70;76.97;99358.42;4295154;80;21671;-83
2021/07/22 20:21:59;;;;;;;14.30;8.33;;;;;;;18.66;77.35;99368.80;4295570;80;20990;-82
2021/07/22 20:28:01;;;;;;;15.08;7.97;;;;;;;18.50;77.05;99372.80;4337948;80;21583;-82
2021/07/22 20:34:03;;;;;;;11.40;7.47;;;;;;;18.36;77.38;99368.81;4308872;80;21075;-83
2021/07/22 20:40:09;;;;;;;9.58;7.15;;;;;;;18.31;77.72;99369.86;4326806;80;21048;-82
2021/07/22 20:46:10;;;;;;;8.83;7.13;;;;;;;18.16;78.14;99369.30;4289462;81;21542;-83
2021/07/22 20:52:14;;;;;;;11.80;7.72;;;;;;;17.92;78.15;99375.92;4301674;81;21345;-82
2021/07/22 20:58:15;;;;;;;13.32;8.10;;;;;;;17.79;78.89;99372.74;4229289;82;21073;-83
2021/07/22 21:04:21;;;;;;;14.25;8.25;;;;;;;17.79;79.08;99374.89;4197171;83;21088;-82
2021/07/22 21:10:26;;;;;;;12.75;8.23;;;;;;;17.77;79.46;99379.28;4228385;82;21087;-83
2021/07/22 21:16:27;;;;;;;17.65;8.30;;;;;;;17.69;80.16;99372.25;4293250;81;21839;-83
2021/07/22 21:29:20;;;;;;;19.90;10.00;;;;;;;17.58;80.75;99365.46;4293621;81;21061;-82
2021/07/22 21:35:23;;;;;;;17.05;9.38;;;;;;;17.60;81.35;99367.81;4298630;81;21084;-83
2021/07/22 21:41:25;;;;;;;20.02;10.05;;;;;;;17.57;81.56;99365.88;4298819;81;21591;-83
2021/07/22 21:47:28;;;;;;;19.02;10.35;;;;;;;17.55;81.83;99358.58;4317296;81;21825;-83
2021/07/22 21:53:29;;;;;;;16.80;9.75;;;;;;;17.50;82.05;99363.97;4298341;81;21543;-83
2021/07/22 21:59:30;;;;;;;13.85;9.60;;;;;;;17.41;82.44;99357.31;4298513;81;21544;-83
2021/07/22 22:05:32;;;;;;;15.58;10.05;;;;;;;17.45;82.77;99357.48;4293307;81;21008;-83
2021/07/22 22:11:33;;;;;;;18.32;10.93;;;;;;;17.45;82.84;99357.48;4298987;81;21067;-84
2021/07/22 22:17:34;;;;;;;16.10;10.03;;;;;;;17.32;82.92;99352.25;4285680;81;21024;-83
2021/07/22 22:23:35;;;;;;;18.60;10.00;;;;;;;17.23;83.06;99348.42;4309011;81;21046;-83
2021/07/22 22:29:37;;;;;;;18.55;9.63;;;;;;;17.21;83.67;99344.69;4301143;81;22274;-83
2021/07/22 22:35:38;;;;;;;19.00;9.73;;;;;;;17.27;83.77;99348.57;4307857;81;21524;-83
2021/07/22 22:41:39;;;;;;;17.50;9.98;;;;;;;17.30;83.95;99356.05;4336628;81;21055;-82
2021/07/22 22:47:40;;;;;;;16.45;9.35;;;;;;;17.33;84.05;99355.22;4304139;81;20997;-84
2021/07/22 22:53:42;;;;;;;21.37;10.18;;;;;;;17.36;84.13;99350.84;4300728;81;21074;-82
2021/07/22 22:59:43;;;;;;;15.10;9.28;;;;;;;17.35;84.15;99348.69;4292282;81;21080;-83
2021/07/22 23:05:44;;;;;;;13.65;9.35;;;;;;;17.30;83.82;99353.28;4283547;81;21054;-82
2021/07/22 23:11:45;;;;;;;19.80;10.35;;;;;;;17.15;84.26;99349.86;4301065;81;21075;-83
2021/07/22 23:17:46;;;;;;;16.07;10.15;;;;;;;17.01;84.21;99348.61;4290051;81;21610;-83
2021/07/22 23:23:48;;;;;;;14.05;9.55;;;;;;;16.97;84.87;99351.22;4281575;81;21673;-82
2021/07/22 23:29:49;;;;;;;14.25;8.98;;;;;;;16.79;84.55;99351.95;4310871;81;21027;-83
2021/07/22 23:35:51;;;;;;;15.58;10.23;;;;;;;16.78;85.39;99340.72;4318091;81;21312;-83
2021/07/22 23:41:53;;;;;;;15.70;10.25;;;;;;;16.80;85.30;99342.48;4283001;81;21732;-84
2021/07/22 23:47:58;;;;;;;14.55;9.90;;;;;;;16.84;85.33;99339.08;4299169;81;21501;-83
2021/07/22 23:53:59;;;;;;;18.25;10.60;;;;;;;16.70;85.10;99343.34;4295785;81;21013;-83
